< < Back
Terminal Aerodrome Forecast


Current Version              Previous Versions:   1  2  3  4  5  6  7  8  9  

Terminal Aerodrome Forecast

969
FTUS42 KGSP 311700
TAFGSP
TAF
KGSP 311720Z 3118/0118 02006KT P6SM OVC070
      TEMPO 3118/3122 4SM -TSRA BR OVC050CB
     FM312200 04006KT P6SM -SHRA OVC050
     FM010600 03006KT 6SM -SHRA BR OVC020
     FM010800 02005KT 4SM -SHRA BR OVC007
     FM011400 06005KT P6SM -SHRA OVC018=



Latest METAR

983
SAUS70 KWBC 010300 RRT
MTRGSP
METAR KGSP 010253Z 02007KT 10SM -RA SCT017 BKN029 OVC090 19/18 A3014 RMK
AO2 SLP198 P0009 60025 T01890183 51006


USA.gov is the U.S. government's official web portal to all federal, state and local government web resources and services.